sensor_id;sensor_type;location;lat;lon;timestamp;pressure;altitude;pressure_sealevel;temperature;humidity
49645;BME280;36494;50.730;-1.932;2023-07-31T00:00:05;100534.13;;;16.40;100.00
49645;BME280;36494;50.730;-1.932;2023-07-31T00:02:29;100532.35;;;16.43;100.00
49645;BME280;36494;50.730;-1.932;2023-07-31T00:04:55;100521.93;;;16.50;100.00
49645;BME280;36494;50.730;-1.932;2023-07-31T00:07:20;100522.30;;;16.48;100.00
49645;BME280;36494;50.730;-1.932;2023-07-31T00:09:45;100516.67;;;16.47;100.00
49645;BME280;36494;50.730;-1.932;2023-07-31T00:12:11;100520.62;;;16.42;100.00
49645;BME280;36494;50.730;-1.932;2023-07-31T00:14:36;100518.15;;;16.47;100.00
49645;BME280;36494;50.730;-1.932;2023-07-31T00:17:02;100514.76;;;16.48;100.00
49645;BME280;36494;50.730;-1.932;2023-07-31T00:19:27;100507.75;;;16.50;100.00
49645;BME280;36494;50.730;-1.932;2023-07-31T00:21:53;100502.00;;;16.48;100.00
49645;BME280;36494;50.730;-1.932;2023-07-31T00:24:18;100501.92;;;16.43;100.00
49645;BME280;36494;50.730;-1.932;2023-07-31T00:26:44;100493.27;;;16.50;100.00
49645;BME280;36494;50.730;-1.932;2023-07-31T00:29:09;100492.94;;;16.53;100.00
49645;BME280;36494;50.730;-1.932;2023-07-31T00:31:34;100489.14;;;16.52;100.00
49645;BME280;36494;50.730;-1.932;2023-07-31T00:34:00;100488.14;;;16.48;100.00
49645;BME280;36494;50.730;-1.932;2023-07-31T00:36:26;100481.95;;;16.52;100.00
49645;BME280;36494;50.730;-1.932;2023-07-31T00:38:52;100472.11;;;16.54;100.00
49645;BME280;36494;50.730;-1.932;2023-07-31T00:41:17;100466.95;;;16.57;100.00
49645;BME280;36494;50.730;-1.932;2023-07-31T00:43:43;100474.37;;;16.56;100.00
49645;BME280;36494;50.730;-1.932;2023-07-31T00:46:09;100470.65;;;16.56;100.00
49645;BME280;36494;50.730;-1.932;2023-07-31T00:48:35;100467.86;;;16.62;100.00
49645;BME280;36494;50.730;-1.932;2023-07-31T00:51:00;100458.52;;;16.58;100.00
49645;BME280;36494;50.730;-1.932;2023-07-31T00:53:26;100469.00;;;16.57;100.00
49645;BME280;36494;50.730;-1.932;2023-07-31T00:55:52;100455.91;;;16.53;100.00
49645;BME280;36494;50.730;-1.932;2023-07-31T00:58:17;100459.69;;;16.60;100.00
49645;BME280;36494;50.730;-1.932;2023-07-31T01:00:43;100457.04;;;16.62;100.00
49645;BME280;36494;50.730;-1.932;2023-07-31T01:03:08;100454.33;;;16.62;100.00
49645;BME280;36494;50.730;-1.932;2023-07-31T01:05:42;100450.30;;;16.62;100.00
49645;BME280;36494;50.730;-1.932;2023-07-31T01:08:05;100443.78;;;16.55;100.00
49645;BME280;36494;50.730;-1.932;2023-07-31T01:10:28;100439.94;;;16.60;100.00
49645;BME280;36494;50.730;-1.932;2023-07-31T01:12:51;100440.69;;;16.61;100.00
49645;BME280;36494;50.730;-1.932;2023-07-31T01:15:16;100441.32;;;16.61;100.00
49645;BME280;36494;50.730;-1.932;2023-07-31T01:17:42;100446.94;;;16.57;100.00
49645;BME280;36494;50.730;-1.932;2023-07-31T01:20:10;100444.35;;;16.60;100.00
49645;BME280;36494;50.730;-1.932;2023-07-31T01:22:53;100431.99;;;16.59;100.00
49645;BME280;36494;50.730;-1.932;2023-07-31T01:25:07;100431.30;;;16.64;100.00
49645;BME280;36494;50.730;-1.932;2023-07-31T01:27:25;100428.98;;;16.65;100.00
49645;BME280;36494;50.730;-1.932;2023-07-31T01:32:16;100415.55;;;16.69;100.00
49645;BME280;36494;50.730;-1.932;2023-07-31T01:34:41;100417.92;;;16.76;100.00
49645;BME280;36494;50.730;-1.932;2023-07-31T01:37:05;100413.92;;;16.69;100.00
49645;BME280;36494;50.730;-1.932;2023-07-31T01:39:31;100408.49;;;16.66;100.00
49645;BME280;36494;50.730;-1.932;2023-07-31T01:41:56;100404.18;;;16.74;100.00
49645;BME280;36494;50.730;-1.932;2023-07-31T01:44:21;100403.65;;;16.71;100.00
49645;BME280;36494;50.730;-1.932;2023-07-31T01:46:47;100405.75;;;16.78;100.00
49645;BME280;36494;50.730;-1.932;2023-07-31T01:49:12;100399.37;;;16.74;100.00
49645;BME280;36494;50.730;-1.932;2023-07-31T01:51:38;100400.17;;;16.76;100.00
49645;BME280;36494;50.730;-1.932;2023-07-31T01:54:03;100396.57;;;16.82;100.00
49645;BME280;36494;50.730;-1.932;2023-07-31T01:56:29;100400.20;;;16.83;100.00
49645;BME280;36494;50.730;-1.932;2023-07-31T01:58:54;100388.82;;;16.81;100.00
49645;BME280;36494;50.730;-1.932;2023-07-31T02:01:20;100384.23;;;16.83;100.00
49645;BME280;36494;50.730;-1.932;2023-07-31T02:03:45;100373.09;;;16.77;100.00
49645;BME280;36494;50.730;-1.932;2023-07-31T02:06:10;100381.54;;;16.77;100.00
49645;BME280;36494;50.730;-1.932;2023-07-31T02:08:36;100381.68;;;16.85;100.00
49645;BME280;36494;50.730;-1.932;2023-07-31T02:11:03;100377.11;;;16.80;100.00
49645;BME280;36494;50.730;-1.932;2023-07-31T02:13:27;100369.41;;;16.85;100.00
49645;BME280;36494;50.730;-1.932;2023-07-31T02:15:53;100361.50;;;16.87;100.00
49645;BME280;36494;50.730;-1.932;2023-07-31T02:18:18;100362.37;;;16.92;100.00
49645;BME280;36494;50.730;-1.932;2023-07-31T02:20:48;100351.96;;;16.91;100.00
49645;BME280;36494;50.730;-1.932;2023-07-31T02:23:09;100351.84;;;16.93;100.00
49645;BME280;36494;50.730;-1.932;2023-07-31T02:25:35;100353.65;;;16.91;100.00
49645;BME280;36494;50.730;-1.932;2023-07-31T02:28:00;100357.03;;;16.95;100.00
49645;BME280;36494;50.730;-1.932;2023-07-31T02:30:25;100353.68;;;16.96;100.00
49645;BME280;36494;50.730;-1.932;2023-07-31T02:32:50;100349.96;;;16.93;100.00
49645;BME280;36494;50.730;-1.932;2023-07-31T02:35:16;100350.70;;;16.92;100.00
49645;BME280;36494;50.730;-1.932;2023-07-31T02:37:42;100339.10;;;16.95;100.00
49645;BME280;36494;50.730;-1.932;2023-07-31T02:40:08;100344.43;;;16.97;100.00
49645;BME280;36494;50.730;-1.932;2023-07-31T02:42:33;100341.19;;;17.03;100.00
49645;BME280;36494;50.730;-1.932;2023-07-31T02:44:58;100346.12;;;17.06;100.00
49645;BME280;36494;50.730;-1.932;2023-07-31T02:47:24;100331.89;;;17.00;100.00
49645;BME280;36494;50.730;-1.932;2023-07-31T02:49:49;100330.44;;;17.01;100.00
49645;BME280;36494;50.730;-1.932;2023-07-31T02:52:15;100338.28;;;17.05;100.00
49645;BME280;36494;50.730;-1.932;2023-07-31T02:54:40;100329.06;;;17.02;100.00
49645;BME280;36494;50.730;-1.932;2023-07-31T02:57:06;100327.23;;;17.08;100.00
49645;BME280;36494;50.730;-1.932;2023-07-31T02:59:32;100327.67;;;17.09;100.00
49645;BME280;36494;50.730;-1.932;2023-07-31T03:01:57;100317.98;;;17.05;100.00
49645;BME280;36494;50.730;-1.932;2023-07-31T03:04:22;100318.76;;;17.11;100.00
49645;BME280;36494;50.730;-1.932;2023-07-31T03:06:48;100317.40;;;17.13;100.00
49645;BME280;36494;50.730;-1.932;2023-07-31T03:09:13;100319.55;;;17.13;100.00
49645;BME280;36494;50.730;-1.932;2023-07-31T03:11:38;100315.69;;;17.08;100.00
49645;BME280;36494;50.730;-1.932;2023-07-31T03:14:04;100314.81;;;17.12;100.00
49645;BME280;36494;50.730;-1.932;2023-07-31T03:16:29;100316.49;;;17.10;100.00
49645;BME280;36494;50.730;-1.932;2023-07-31T03:18:55;100319.13;;;17.11;100.00
49645;BME280;36494;50.730;-1.932;2023-07-31T03:21:20;100318.62;;;17.11;100.00
49645;BME280;36494;50.730;-1.932;2023-07-31T03:23:46;100312.01;;;17.12;100.00
49645;BME280;36494;50.730;-1.932;2023-07-31T03:26:12;100313.32;;;17.11;100.00
49645;BME280;36494;50.730;-1.932;2023-07-31T03:28:38;100312.50;;;17.09;100.00
49645;BME280;36494;50.730;-1.932;2023-07-31T03:31:03;100301.76;;;17.18;100.00
49645;BME280;36494;50.730;-1.932;2023-07-31T03:33:29;100298.58;;;17.15;100.00
49645;BME280;36494;50.730;-1.932;2023-07-31T03:35:54;100298.77;;;17.14;100.00
49645;BME280;36494;50.730;-1.932;2023-07-31T03:38:20;100293.30;;;17.18;100.00
49645;BME280;36494;50.730;-1.932;2023-07-31T03:40:44;100294.74;;;17.15;100.00
49645;BME280;36494;50.730;-1.932;2023-07-31T03:43:10;100294.05;;;17.11;100.00
49645;BME280;36494;50.730;-1.932;2023-07-31T03:45:35;100288.48;;;17.14;100.00
49645;BME280;36494;50.730;-1.932;2023-07-31T03:48:00;100284.09;;;17.16;100.00
49645;BME280;36494;50.730;-1.932;2023-07-31T03:50:26;100283.77;;;17.17;100.00
49645;BME280;36494;50.730;-1.932;2023-07-31T03:52:52;100280.05;;;17.16;100.00
49645;BME280;36494;50.730;-1.932;2023-07-31T03:55:17;100277.78;;;17.20;100.00
49645;BME280;36494;50.730;-1.932;2023-07-31T03:57:42;100280.52;;;17.17;100.00
49645;BME280;36494;50.730;-1.932;2023-07-31T04:00:08;100282.30;;;17.08;100.00
49645;BME280;36494;50.730;-1.932;2023-07-31T04:02:33;100277.18;;;17.15;100.00
49645;BME280;36494;50.730;-1.932;2023-07-31T04:04:58;100271.56;;;17.15;100.00
49645;BME280;36494;50.730;-1.932;2023-07-31T04:07:23;100280.93;;;17.14;100.00
49645;BME280;36494;50.730;-1.932;2023-07-31T04:09:49;100279.15;;;17.16;100.00
49645;BME280;36494;50.730;-1.932;2023-07-31T04:12:15;100273.95;;;17.11;100.00
49645;BME280;36494;50.730;-1.932;2023-07-31T04:14:40;100275.27;;;17.18;100.00
49645;BME280;36494;50.730;-1.932;2023-07-31T04:17:06;100277.85;;;17.16;100.00
49645;BME280;36494;50.730;-1.932;2023-07-31T04:19:31;100275.29;;;17.21;100.00
49645;BME280;36494;50.730;-1.932;2023-07-31T04:21:56;100275.59;;;17.15;100.00
49645;BME280;36494;50.730;-1.932;2023-07-31T04:24:21;100271.21;;;17.19;100.00
49645;BME280;36494;50.730;-1.932;2023-07-31T04:26:47;100269.69;;;17.21;100.00
49645;BME280;36494;50.730;-1.932;2023-07-31T04:29:12;100268.82;;;17.20;100.00
49645;BME280;36494;50.730;-1.932;2023-07-31T04:31:37;100265.11;;;17.23;100.00
49645;BME280;36494;50.730;-1.932;2023-07-31T04:34:03;100263.45;;;17.25;100.00
49645;BME280;36494;50.730;-1.932;2023-07-31T04:36:28;100256.33;;;17.25;100.00
49645;BME280;36494;50.730;-1.932;2023-07-31T04:38:53;100262.69;;;17.23;100.00
49645;BME280;36494;50.730;-1.932;2023-07-31T04:41:19;100261.19;;;17.30;100.00
49645;BME280;36494;50.730;-1.932;2023-07-31T04:43:44;100266.33;;;17.35;100.00
49645;BME280;36494;50.730;-1.932;2023-07-31T04:46:10;100263.08;;;17.21;100.00
49645;BME280;36494;50.730;-1.932;2023-07-31T04:48:36;100265.27;;;17.23;100.00
49645;BME280;36494;50.730;-1.932;2023-07-31T04:51:01;100268.78;;;17.29;100.00
49645;BME280;36494;50.730;-1.932;2023-07-31T04:53:26;100258.87;;;17.32;100.00
49645;BME280;36494;50.730;-1.932;2023-07-31T04:55:51;100256.97;;;17.35;100.00
49645;BME280;36494;50.730;-1.932;2023-07-31T04:58:17;100250.82;;;17.30;100.00
49645;BME280;36494;50.730;-1.932;2023-07-31T05:00:42;100256.44;;;17.32;100.00
49645;BME280;36494;50.730;-1.932;2023-07-31T05:03:08;100246.62;;;17.34;100.00
49645;BME280;36494;50.730;-1.932;2023-07-31T05:05:33;100247.76;;;17.26;100.00
49645;BME280;36494;50.730;-1.932;2023-07-31T05:07:59;100249.18;;;17.24;100.00
49645;BME280;36494;50.730;-1.932;2023-07-31T05:10:24;100244.23;;;17.24;100.00
49645;BME280;36494;50.730;-1.932;2023-07-31T05:12:50;100241.94;;;17.30;100.00
49645;BME280;36494;50.730;-1.932;2023-07-31T05:15:15;100236.93;;;17.42;100.00
49645;BME280;36494;50.730;-1.932;2023-07-31T05:17:41;100238.88;;;17.27;100.00
49645;BME280;36494;50.730;-1.932;2023-07-31T05:20:07;100239.03;;;17.31;100.00
49645;BME280;36494;50.730;-1.932;2023-07-31T05:22:31;100238.91;;;17.23;100.00
49645;BME280;36494;50.730;-1.932;2023-07-31T05:24:56;100240.13;;;17.28;100.00
49645;BME280;36494;50.730;-1.932;2023-07-31T05:27:22;100240.37;;;17.35;100.00
49645;BME280;36494;50.730;-1.932;2023-07-31T05:29:47;100241.17;;;17.40;100.00
49645;BME280;36494;50.730;-1.932;2023-07-31T05:32:12;100243.31;;;17.41;100.00
49645;BME280;36494;50.730;-1.932;2023-07-31T05:34:37;100238.95;;;17.44;100.00
49645;BME280;36494;50.730;-1.932;2023-07-31T05:37:03;100233.01;;;17.47;100.00
49645;BME280;36494;50.730;-1.932;2023-07-31T05:39:28;100236.56;;;17.44;100.00
49645;BME280;36494;50.730;-1.932;2023-07-31T05:41:53;100233.66;;;17.46;100.00
49645;BME280;36494;50.730;-1.932;2023-07-31T05:44:18;100236.16;;;17.45;100.00
49645;BME280;36494;50.730;-1.932;2023-07-31T05:46:44;100238.28;;;17.44;100.00
49645;BME280;36494;50.730;-1.932;2023-07-31T05:49:09;100233.57;;;17.48;100.00
49645;BME280;36494;50.730;-1.932;2023-07-31T05:51:35;100234.67;;;17.42;100.00
49645;BME280;36494;50.730;-1.932;2023-07-31T05:54:00;100233.49;;;17.45;100.00
49645;BME280;36494;50.730;-1.932;2023-07-31T05:56:25;100229.53;;;17.42;100.00
49645;BME280;36494;50.730;-1.932;2023-07-31T05:58:50;100224.89;;;17.46;100.00
49645;BME280;36494;50.730;-1.932;2023-07-31T06:01:16;100221.97;;;17.38;100.00
49645;BME280;36494;50.730;-1.932;2023-07-31T06:03:41;100225.35;;;17.37;100.00
49645;BME280;36494;50.730;-1.932;2023-07-31T06:06:06;100221.05;;;17.33;100.00
49645;BME280;36494;50.730;-1.932;2023-07-31T06:08:31;100225.31;;;17.40;100.00
49645;BME280;36494;50.730;-1.932;2023-07-31T06:10:57;100230.26;;;17.39;100.00
49645;BME280;36494;50.730;-1.932;2023-07-31T06:13:22;100221.57;;;17.37;100.00
49645;BME280;36494;50.730;-1.932;2023-07-31T06:15:47;100227.35;;;17.43;100.00
49645;BME280;36494;50.730;-1.932;2023-07-31T06:18:13;100222.84;;;17.46;100.00
49645;BME280;36494;50.730;-1.932;2023-07-31T06:20:38;100217.30;;;17.53;100.00
49645;BME280;36494;50.730;-1.932;2023-07-31T06:23:04;100217.34;;;17.51;100.00
49645;BME280;36494;50.730;-1.932;2023-07-31T06:25:29;100215.25;;;17.46;100.00
49645;BME280;36494;50.730;-1.932;2023-07-31T06:27:55;100220.68;;;17.41;100.00
49645;BME280;36494;50.730;-1.932;2023-07-31T06:30:20;100215.45;;;17.46;100.00
49645;BME280;36494;50.730;-1.932;2023-07-31T06:32:45;100215.78;;;17.43;100.00
49645;BME280;36494;50.730;-1.932;2023-07-31T06:35:11;100208.28;;;17.48;100.00
49645;BME280;36494;50.730;-1.932;2023-07-31T06:37:36;100213.03;;;17.47;100.00
49645;BME280;36494;50.730;-1.932;2023-07-31T06:40:03;100210.79;;;17.47;100.00
49645;BME280;36494;50.730;-1.932;2023-07-31T06:42:28;100215.42;;;17.46;100.00
49645;BME280;36494;50.730;-1.932;2023-07-31T06:44:53;100214.23;;;17.45;100.00
49645;BME280;36494;50.730;-1.932;2023-07-31T06:47:18;100206.95;;;17.45;100.00
49645;BME280;36494;50.730;-1.932;2023-07-31T06:49:43;100202.75;;;17.41;100.00
49645;BME280;36494;50.730;-1.932;2023-07-31T06:52:09;100205.05;;;17.38;100.00
49645;BME280;36494;50.730;-1.932;2023-07-31T06:54:34;100212.37;;;17.45;100.00
49645;BME280;36494;50.730;-1.932;2023-07-31T06:57:00;100205.85;;;17.39;100.00
49645;BME280;36494;50.730;-1.932;2023-07-31T06:59:25;100204.19;;;17.43;100.00
49645;BME280;36494;50.730;-1.932;2023-07-31T07:01:50;100204.97;;;17.36;100.00
49645;BME280;36494;50.730;-1.932;2023-07-31T07:04:15;100206.06;;;17.41;100.00
49645;BME280;36494;50.730;-1.932;2023-07-31T07:06:41;100199.51;;;17.47;100.00
49645;BME280;36494;50.730;-1.932;2023-07-31T07:09:06;100196.78;;;17.55;100.00
49645;BME280;36494;50.730;-1.932;2023-07-31T07:11:31;100196.48;;;17.59;100.00
49645;BME280;36494;50.730;-1.932;2023-07-31T07:13:56;100191.23;;;17.49;100.00
49645;BME280;36494;50.730;-1.932;2023-07-31T07:16:22;100192.17;;;17.53;100.00
49645;BME280;36494;50.730;-1.932;2023-07-31T07:18:47;100189.67;;;17.58;100.00
49645;BME280;36494;50.730;-1.932;2023-07-31T07:21:12;100186.61;;;17.54;100.00
49645;BME280;36494;50.730;-1.932;2023-07-31T07:23:37;100182.80;;;17.52;100.00
49645;BME280;36494;50.730;-1.932;2023-07-31T07:26:03;100181.86;;;17.55;100.00
49645;BME280;36494;50.730;-1.932;2023-07-31T07:28:28;100180.06;;;17.51;100.00
49645;BME280;36494;50.730;-1.932;2023-07-31T07:30:53;100178.95;;;17.60;100.00
49645;BME280;36494;50.730;-1.932;2023-07-31T07:33:19;100176.79;;;17.66;100.00
49645;BME280;36494;50.730;-1.932;2023-07-31T07:35:44;100182.85;;;17.62;100.00
49645;BME280;36494;50.730;-1.932;2023-07-31T07:38:09;100176.99;;;17.61;100.00
49645;BME280;36494;50.730;-1.932;2023-07-31T07:40:38;100173.91;;;17.63;100.00
49645;BME280;36494;50.730;-1.932;2023-07-31T07:43:00;100171.93;;;17.74;100.00
49645;BME280;36494;50.730;-1.932;2023-07-31T07:45:25;100170.74;;;17.60;100.00
49645;BME280;36494;50.730;-1.932;2023-07-31T07:47:50;100169.57;;;17.68;100.00
49645;BME280;36494;50.730;-1.932;2023-07-31T07:50:16;100159.92;;;17.76;100.00
49645;BME280;36494;50.730;-1.932;2023-07-31T07:52:42;100156.01;;;17.74;100.00
49645;BME280;36494;50.730;-1.932;2023-07-31T07:55:07;100157.55;;;17.82;100.00
49645;BME280;36494;50.730;-1.932;2023-07-31T07:57:32;100155.29;;;17.75;100.00
49645;BME280;36494;50.730;-1.932;2023-07-31T07:59:57;100151.91;;;17.78;100.00
49645;BME280;36494;50.730;-1.932;2023-07-31T08:02:22;100150.65;;;17.80;100.00
49645;BME280;36494;50.730;-1.932;2023-07-31T08:04:48;100154.97;;;17.85;100.00
49645;BME280;36494;50.730;-1.932;2023-07-31T08:07:13;100156.57;;;17.84;100.00
49645;BME280;36494;50.730;-1.932;2023-07-31T08:09:39;100151.39;;;17.88;100.00
49645;BME280;36494;50.730;-1.932;2023-07-31T08:12:04;100146.74;;;17.90;100.00
49645;BME280;36494;50.730;-1.932;2023-07-31T08:14:29;100142.03;;;17.84;100.00
49645;BME280;36494;50.730;-1.932;2023-07-31T08:16:54;100139.83;;;17.85;100.00
49645;BME280;36494;50.730;-1.932;2023-07-31T08:19:19;100140.16;;;17.83;100.00
49645;BME280;36494;50.730;-1.932;2023-07-31T08:21:44;100143.18;;;17.90;100.00
49645;BME280;36494;50.730;-1.932;2023-07-31T08:24:10;100142.73;;;17.94;100.00
49645;BME280;36494;50.730;-1.932;2023-07-31T08:26:36;100140.29;;;17.93;100.00
49645;BME280;36494;50.730;-1.932;2023-07-31T08:29:01;100137.77;;;18.02;100.00
49645;BME280;36494;50.730;-1.932;2023-07-31T08:31:27;100141.27;;;18.08;100.00
49645;BME280;36494;50.730;-1.932;2023-07-31T08:33:52;100141.70;;;18.00;100.00
49645;BME280;36494;50.730;-1.932;2023-07-31T08:36:18;100133.41;;;18.06;100.00
49645;BME280;36494;50.730;-1.932;2023-07-31T08:38:45;100131.17;;;18.08;100.00
49645;BME280;36494;50.730;-1.932;2023-07-31T08:41:09;100130.86;;;18.04;100.00
49645;BME280;36494;50.730;-1.932;2023-07-31T08:43:35;100132.35;;;18.06;100.00
49645;BME280;36494;50.730;-1.932;2023-07-31T08:45:59;100129.50;;;18.12;100.00
49645;BME280;36494;50.730;-1.932;2023-07-31T08:48:25;100119.49;;;18.11;100.00
49645;BME280;36494;50.730;-1.932;2023-07-31T08:50:50;100115.55;;;18.17;100.00
49645;BME280;36494;50.730;-1.932;2023-07-31T08:53:16;100126.12;;;18.11;100.00
49645;BME280;36494;50.730;-1.932;2023-07-31T08:55:41;100129.64;;;18.17;100.00
49645;BME280;36494;50.730;-1.932;2023-07-31T08:58:08;100136.18;;;18.19;100.00
49645;BME280;36494;50.730;-1.932;2023-07-31T09:00:32;100137.91;;;18.14;100.00
49645;BME280;36494;50.730;-1.932;2023-07-31T09:03:01;100132.19;;;18.09;100.00
49645;BME280;36494;50.730;-1.932;2023-07-31T09:05:23;100127.72;;;18.16;100.00
49645;BME280;36494;50.730;-1.932;2023-07-31T09:07:50;100121.04;;;18.15;100.00
49645;BME280;36494;50.730;-1.932;2023-07-31T09:10:14;100113.04;;;18.19;100.00
49645;BME280;36494;50.730;-1.932;2023-07-31T09:12:39;100108.96;;;18.26;100.00
49645;BME280;36494;50.730;-1.932;2023-07-31T09:15:05;100110.43;;;18.24;100.00
49645;BME280;36494;50.730;-1.932;2023-07-31T09:17:30;100106.90;;;18.29;100.00
49645;BME280;36494;50.730;-1.932;2023-07-31T09:19:55;100101.01;;;18.28;100.00
49645;BME280;36494;50.730;-1.932;2023-07-31T09:22:31;100099.66;;;18.30;100.00
49645;BME280;36494;50.730;-1.932;2023-07-31T09:24:45;100098.26;;;18.31;100.00
49645;BME280;36494;50.730;-1.932;2023-07-31T09:27:11;100089.21;;;18.34;100.00
49645;BME280;36494;50.730;-1.932;2023-07-31T09:29:36;100091.28;;;18.35;100.00
49645;BME280;36494;50.730;-1.932;2023-07-31T09:32:01;100098.76;;;18.41;100.00
49645;BME280;36494;50.730;-1.932;2023-07-31T09:34:37;100100.96;;;18.36;100.00
49645;BME280;36494;50.730;-1.932;2023-07-31T09:36:52;100098.96;;;18.35;100.00
49645;BME280;36494;50.730;-1.932;2023-07-31T09:39:18;100092.54;;;18.39;100.00
49645;BME280;36494;50.730;-1.932;2023-07-31T09:41:44;100083.69;;;18.32;100.00
49645;BME280;36494;50.730;-1.932;2023-07-31T09:44:08;100090.15;;;18.31;100.00
49645;BME280;36494;50.730;-1.932;2023-07-31T09:46:35;100090.65;;;18.34;100.00
49645;BME280;36494;50.730;-1.932;2023-07-31T09:49:07;100086.35;;;18.32;100.00
49645;BME280;36494;50.730;-1.932;2023-07-31T09:51:26;100092.27;;;18.31;100.00
49645;BME280;36494;50.730;-1.932;2023-07-31T09:53:50;100095.12;;;18.29;100.00
49645;BME280;36494;50.730;-1.932;2023-07-31T09:56:14;100096.27;;;18.27;100.00
49645;BME280;36494;50.730;-1.932;2023-07-31T09:58:39;100106.89;;;18.22;100.00
49645;BME280;36494;50.730;-1.932;2023-07-31T10:01:05;100113.84;;;18.23;100.00
49645;BME280;36494;50.730;-1.932;2023-07-31T10:03:31;100114.07;;;18.27;100.00
49645;BME280;36494;50.730;-1.932;2023-07-31T10:05:56;100099.64;;;18.27;100.00
49645;BME280;36494;50.730;-1.932;2023-07-31T10:08:26;100100.01;;;18.24;100.00
49645;BME280;36494;50.730;-1.932;2023-07-31T10:10:46;100095.99;;;18.29;100.00
49645;BME280;36494;50.730;-1.932;2023-07-31T10:13:12;100114.32;;;18.33;100.00
49645;BME280;36494;50.730;-1.932;2023-07-31T10:15:37;100123.44;;;18.37;100.00
49645;BME280;36494;50.730;-1.932;2023-07-31T10:18:02;100134.56;;;18.35;100.00
49645;BME280;36494;50.730;-1.932;2023-07-31T10:20:28;100149.29;;;18.30;100.00
49645;BME280;36494;50.730;-1.932;2023-07-31T10:22:54;100148.46;;;18.26;100.00
49645;BME280;36494;50.730;-1.932;2023-07-31T10:25:18;100140.17;;;18.34;100.00
49645;BME280;36494;50.730;-1.932;2023-07-31T10:27:43;100122.82;;;18.26;100.00
49645;BME280;36494;50.730;-1.932;2023-07-31T10:30:11;100120.18;;;18.20;100.00
49645;BME280;36494;50.730;-1.932;2023-07-31T10:32:34;100115.90;;;18.28;100.00
49645;BME280;36494;50.730;-1.932;2023-07-31T10:34:59;100129.75;;;18.24;100.00
49645;BME280;36494;50.730;-1.932;2023-07-31T10:37:27;100128.06;;;18.22;100.00
49645;BME280;36494;50.730;-1.932;2023-07-31T10:39:55;100130.97;;;18.22;100.00
49645;BME280;36494;50.730;-1.932;2023-07-31T10:42:15;100139.18;;;18.17;100.00
49645;BME280;36494;50.730;-1.932;2023-07-31T10:44:44;100145.42;;;18.30;100.00
49645;BME280;36494;50.730;-1.932;2023-07-31T10:47:06;100139.03;;;18.35;100.00
49645;BME280;36494;50.730;-1.932;2023-07-31T10:49:32;100134.34;;;18.36;100.00
49645;BME280;36494;50.730;-1.932;2023-07-31T10:51:56;100119.19;;;18.27;100.00
49645;BME280;36494;50.730;-1.932;2023-07-31T10:54:21;100126.87;;;18.18;100.00
49645;BME280;36494;50.730;-1.932;2023-07-31T10:56:46;100136.29;;;18.22;100.00
49645;BME280;36494;50.730;-1.932;2023-07-31T10:59:13;100119.88;;;18.21;100.00
49645;BME280;36494;50.730;-1.932;2023-07-31T11:01:50;100114.85;;;18.26;100.00
49645;BME280;36494;50.730;-1.932;2023-07-31T11:04:10;100134.38;;;18.19;100.00
49645;BME280;36494;50.730;-1.932;2023-07-31T11:06:29;100125.87;;;18.23;100.00
49645;BME280;36494;50.730;-1.932;2023-07-31T11:08:53;100117.15;;;18.38;100.00
49645;BME280;36494;50.730;-1.932;2023-07-31T11:11:19;100123.05;;;18.46;100.00
49645;BME280;36494;50.730;-1.932;2023-07-31T11:13:45;100125.67;;;18.36;100.00
49645;BME280;36494;50.730;-1.932;2023-07-31T11:16:08;100134.45;;;18.40;100.00
49645;BME280;36494;50.730;-1.932;2023-07-31T11:18:34;100137.43;;;18.36;100.00
49645;BME280;36494;50.730;-1.932;2023-07-31T11:20:59;100129.62;;;18.28;100.00
49645;BME280;36494;50.730;-1.932;2023-07-31T11:23:25;100120.02;;;18.32;100.00
49645;BME280;36494;50.730;-1.932;2023-07-31T11:25:50;100122.45;;;18.27;100.00
49645;BME280;36494;50.730;-1.932;2023-07-31T11:28:16;100119.13;;;18.33;100.00
49645;BME280;36494;50.730;-1.932;2023-07-31T11:30:42;100117.53;;;18.30;100.00
49645;BME280;36494;50.730;-1.932;2023-07-31T11:33:07;100120.84;;;18.32;100.00
49645;BME280;36494;50.730;-1.932;2023-07-31T11:35:32;100110.31;;;18.37;100.00
49645;BME280;36494;50.730;-1.932;2023-07-31T11:37:56;100114.27;;;18.21;100.00
49645;BME280;36494;50.730;-1.932;2023-07-31T11:40:21;100112.74;;;18.35;100.00
49645;BME280;36494;50.730;-1.932;2023-07-31T11:42:47;100096.41;;;18.34;100.00
49645;BME280;36494;50.730;-1.932;2023-07-31T11:45:12;100088.44;;;18.36;100.00
49645;BME280;36494;50.730;-1.932;2023-07-31T11:47:37;100084.96;;;18.34;100.00
49645;BME280;36494;50.730;-1.932;2023-07-31T11:50:05;100070.63;;;18.34;100.00
49645;BME280;36494;50.730;-1.932;2023-07-31T11:52:29;100071.48;;;18.41;100.00
49645;BME280;36494;50.730;-1.932;2023-07-31T11:54:54;100071.14;;;18.39;100.00
49645;BME280;36494;50.730;-1.932;2023-07-31T11:57:19;100070.33;;;18.39;100.00
49645;BME280;36494;50.730;-1.932;2023-07-31T11:59:44;100062.00;;;18.30;100.00
49645;BME280;36494;50.730;-1.932;2023-07-31T12:02:09;100070.83;;;18.29;100.00
49645;BME280;36494;50.730;-1.932;2023-07-31T12:04:35;100039.84;;;18.27;100.00
49645;BME280;36494;50.730;-1.932;2023-07-31T12:07:00;100041.52;;;18.34;100.00
49645;BME280;36494;50.730;-1.932;2023-07-31T12:09:25;100037.79;;;18.30;100.00
49645;BME280;36494;50.730;-1.932;2023-07-31T12:11:50;100038.06;;;18.37;100.00
49645;BME280;36494;50.730;-1.932;2023-07-31T12:14:20;100051.39;;;18.37;100.00
49645;BME280;36494;50.730;-1.932;2023-07-31T12:16:40;100061.79;;;18.28;100.00
49645;BME280;36494;50.730;-1.932;2023-07-31T12:19:07;100057.54;;;18.28;100.00
49645;BME280;36494;50.730;-1.932;2023-07-31T12:21:31;100045.94;;;18.36;100.00